createdAt,value
2022-08-31T05:40:55.486Z,64.29
2022-08-31T05:43:26.131Z,64.04
2022-08-31T05:45:55.211Z,64.49
2022-08-31T05:58:04.008Z,64.38
2022-08-31T06:55:23.819Z,64.31
2022-08-31T06:58:16.170Z,64.59
2022-08-31T07:01:10.326Z,64.08
2022-08-31T07:03:58.049Z,64.13
2022-08-31T07:06:27.337Z,64.43
2022-08-31T07:08:57.452Z,64.05
2022-08-31T07:11:56.405Z,64.26
2022-08-31T07:14:28.422Z,64.93
2022-08-31T07:16:58.746Z,64.82
2022-08-31T07:19:30.862Z,64.48
2022-08-31T07:22:01.202Z,64.43
2022-08-31T07:24:52.060Z,64.62
2022-08-31T07:42:35.336Z,63.89
2022-08-31T07:45:11.671Z,63.96
2022-08-31T07:47:45.871Z,63.36
2022-08-31T07:50:17.273Z,63.10
2022-08-31T07:53:01.256Z,63.35
2022-08-31T07:55:45.922Z,63.00
2022-08-31T07:58:30.891Z,63.04
2022-08-31T08:01:04.380Z,62.70
2022-08-31T08:03:31.569Z,62.65
2022-08-31T08:06:37.482Z,62.66
2022-08-31T08:09:30.739Z,62.50
2022-08-31T08:55:00.040Z,60.27
2022-08-31T08:57:29.969Z,60.02
2022-08-31T09:00:12.848Z,59.71
2022-08-31T09:03:04.499Z,59.44
2022-08-31T09:06:12.610Z,59.15
2022-08-31T10:51:29.380Z,49.44
2022-08-31T10:54:17.103Z,48.54
2022-08-31T10:57:00.780Z,48.95
2022-08-31T11:00:09.632Z,48.51
2022-08-31T11:03:07.370Z,48.76
2022-08-31T11:05:45.502Z,48.19
2022-08-31T11:08:30.449Z,47.65
2022-08-31T11:10:58.367Z,47.86
2022-08-31T11:13:36.870Z,46.95
2022-08-31T11:20:25.730Z,46.75
2022-08-31T12:33:54.055Z,46.96
2022-08-31T12:48:40.029Z,46.18
2022-08-31T13:11:44.570Z,45.22
2022-08-31T13:14:21.039Z,45.50
2022-08-31T13:16:51.488Z,45.61
2022-08-31T13:19:25.811Z,45.10
2022-08-31T13:22:01.310Z,45.36
2022-08-31T13:24:41.463Z,45.35
2022-08-31T13:27:23.070Z,45.65
2022-08-31T13:29:50.866Z,45.67
2022-08-31T13:32:33.089Z,44.50
2022-08-31T13:35:10.125Z,44.61
2022-08-31T13:37:43.723Z,44.31
2022-08-31T13:40:12.863Z,44.28
2022-08-31T13:42:48.483Z,44.96
2022-08-31T13:45:58.002Z,44.33
2022-08-31T13:48:35.735Z,44.15
2022-08-31T13:51:13.237Z,44.43
2022-08-31T13:54:06.231Z,44.79
2022-08-31T13:56:59.091Z,45.66
2022-08-31T13:59:32.811Z,45.84
2022-08-31T14:02:20.835Z,45.27
2022-08-31T14:04:58.354Z,45.80
2022-08-31T14:18:59.262Z,46.46
2022-08-31T14:21:29.622Z,46.51
2022-08-31T14:24:02.257Z,45.99
2022-08-31T14:26:38.270Z,45.95
2022-08-31T14:29:11.729Z,45.27
2022-08-31T14:31:43.039Z,45.33
2022-08-31T14:34:32.669Z,45.35
2022-08-31T14:37:09.064Z,44.68
2022-08-31T14:39:45.691Z,44.91
2022-08-31T14:42:24.915Z,45.35
2022-08-31T14:45:18.877Z,45.61
2022-08-31T14:47:51.290Z,44.91
2022-08-31T14:50:23.685Z,45.19
2022-08-31T14:52:55.700Z,44.90
2022-08-31T14:55:24.464Z,45.05
2022-08-31T14:57:59.042Z,45.33
2022-08-31T15:00:27.162Z,45.71
2022-08-31T15:02:54.512Z,45.51
2022-08-31T15:05:25.889Z,45.71
2022-08-31T15:07:54.608Z,46.00
2022-08-31T15:10:24.418Z,45.49
2022-08-31T15:12:52.669Z,45.77
2022-08-31T15:15:21.414Z,46.12
2022-08-31T15:27:44.858Z,46.16
2022-08-31T15:34:30.625Z,46.37
2022-08-31T15:43:26.545Z,47.02
2022-08-31T15:49:26.584Z,46.85
2022-08-31T15:55:35.469Z,46.22
2022-08-31T15:58:04.513Z,46.74
2022-08-31T16:00:35.562Z,46.20
2022-08-31T16:03:04.602Z,46.31
2022-08-31T16:05:36.050Z,46.06
2022-08-31T16:08:06.227Z,46.22
2022-08-31T16:10:33.881Z,46.12
2022-08-31T16:13:06.579Z,45.80
2022-08-31T16:18:03.214Z,46.42
2022-08-31T16:20:30.484Z,46.56
2022-08-31T16:22:59.005Z,45.97
2022-08-31T16:25:29.146Z,46.83
2022-08-31T16:27:57.938Z,46.36
2022-08-31T16:42:08.994Z,47.64
2022-08-31T16:47:19.731Z,48.16
2022-08-31T16:49:47.900Z,47.60
2022-08-31T16:52:27.722Z,47.55
